createdAt,value
2023-05-14T00:00:59.847Z,58.28
2023-05-14T00:03:28.266Z,58.24
2023-05-14T00:05:56.088Z,58.54
2023-05-14T00:08:25.275Z,58.68
2023-05-14T00:10:53.983Z,59.12
2023-05-14T00:13:21.736Z,58.99
2023-05-14T00:15:49.497Z,59.28
2023-05-14T00:18:17.760Z,59.22
2023-05-14T00:20:45.578Z,59.53
2023-05-14T00:23:13.593Z,59.27
2023-05-14T00:25:43.306Z,59.76
2023-05-14T00:28:11.089Z,59.59
2023-05-14T00:30:39.733Z,59.37
2023-05-14T00:33:08.332Z,59.31
2023-05-14T00:35:36.267Z,59.41
2023-05-14T00:38:04.792Z,59.45
2023-05-14T00:40:33.269Z,59.10
2023-05-14T00:43:02.521Z,59.13
2023-05-14T00:45:30.318Z,59.33
2023-05-14T00:47:58.747Z,59.08
2023-05-14T00:50:27.112Z,59.04
2023-05-14T00:52:55.022Z,59.03
2023-05-14T00:55:24.264Z,58.93
2023-05-14T00:57:52.302Z,59.08
2023-05-14T01:00:22.129Z,59.27
2023-05-14T01:02:50.599Z,58.95
2023-05-14T01:05:18.680Z,59.08
2023-05-14T01:07:56.781Z,59.24
2023-05-14T01:10:30.043Z,59.02
2023-05-14T01:13:05.085Z,59.15
2023-05-14T01:15:37.087Z,59.17
2023-05-14T01:18:08.067Z,59.62
2023-05-14T01:20:36.447Z,59.60
2023-05-14T01:23:05.956Z,59.70
2023-05-14T01:25:34.281Z,59.64
2023-05-14T01:28:08.059Z,59.78
2023-05-14T01:30:38.530Z,59.72
2023-05-14T01:33:11.114Z,60.18
2023-05-14T01:35:39.777Z,59.95
2023-05-14T01:38:12.314Z,60.42
2023-05-14T01:40:41.394Z,60.55
2023-05-14T01:43:09.702Z,60.17
2023-05-14T01:45:38.298Z,60.34
2023-05-14T01:48:07.240Z,60.56
2023-05-14T01:50:35.107Z,60.47
2023-05-14T01:53:02.925Z,60.22
2023-05-14T01:55:32.125Z,60.53
2023-05-14T01:57:59.940Z,60.30
2023-05-14T02:00:28.168Z,60.79
2023-05-14T02:02:56.509Z,60.65
2023-05-14T02:05:24.396Z,60.36
2023-05-14T02:07:52.823Z,60.65
2023-05-14T02:10:21.256Z,60.71
2023-05-14T02:12:50.542Z,60.92
2023-05-14T02:15:18.408Z,60.63
2023-05-14T02:17:46.966Z,61.02
2023-05-14T02:20:15.093Z,60.56
2023-05-14T02:22:45.658Z,61.17
2023-05-14T02:25:14.216Z,61.48
2023-05-14T02:27:42.011Z,61.15
2023-05-14T02:30:12.650Z,61.86
2023-05-14T02:32:40.567Z,61.52
2023-05-14T02:35:09.264Z,61.14
2023-05-14T02:37:37.040Z,61.46
2023-05-14T02:40:05.729Z,61.55
2023-05-14T02:42:33.506Z,61.50
2023-05-14T02:45:01.271Z,61.56
2023-05-14T02:47:31.011Z,61.29
2023-05-14T02:49:58.824Z,61.67
2023-05-14T02:52:26.639Z,61.70
2023-05-14T02:54:54.456Z,61.42
2023-05-14T02:57:22.239Z,61.64
2023-05-14T02:59:50.033Z,61.33
2023-05-14T03:02:18.722Z,61.63
2023-05-14T03:04:48.273Z,61.91
2023-05-14T03:07:16.056Z,61.75
2023-05-14T03:09:44.282Z,61.49
2023-05-14T03:12:12.695Z,61.78
2023-05-14T03:14:40.505Z,61.88
2023-05-14T03:17:09.012Z,61.83
2023-05-14T03:19:36.900Z,61.93
2023-05-14T03:22:06.269Z,61.91
2023-05-14T03:24:34.623Z,61.83
2023-05-14T03:27:02.389Z,61.97
2023-05-14T03:29:30.504Z,61.64
2023-05-14T03:31:58.937Z,61.63
2023-05-14T03:34:26.803Z,61.66
2023-05-14T03:36:54.561Z,61.94
2023-05-14T03:39:24.212Z,61.94
2023-05-14T03:41:51.776Z,61.71
2023-05-14T03:44:19.648Z,61.69
2023-05-14T03:46:47.970Z,61.64
2023-05-14T03:49:15.784Z,61.50
2023-05-14T03:51:43.550Z,61.50
2023-05-14T03:54:11.833Z,61.27
2023-05-14T03:56:41.144Z,61.42
2023-05-14T03:59:08.930Z,61.59
2023-05-14T04:01:37.424Z,61.96
2023-05-14T04:04:05.589Z,61.80
2023-05-14T04:06:34.146Z,61.69
2023-05-14T04:09:02.544Z,61.69
2023-05-14T04:11:30.316Z,61.60
2023-05-14T04:13:59.457Z,61.55
2023-05-14T04:16:27.846Z,61.78
2023-05-14T04:18:55.768Z,61.72
2023-05-14T04:21:23.568Z,61.79
2023-05-14T04:23:52.129Z,61.13
2023-05-14T04:26:20.085Z,61.42
2023-05-14T04:28:47.900Z,61.31
2023-05-14T04:31:17.519Z,61.60
2023-05-14T04:33:45.120Z,61.90
2023-05-14T04:36:12.882Z,61.56
2023-05-14T04:38:42.098Z,61.42
2023-05-14T04:41:09.876Z,61.62
2023-05-14T04:43:37.625Z,61.75
2023-05-14T04:46:06.219Z,61.45
2023-05-14T04:48:35.380Z,61.79
2023-05-14T04:51:04.974Z,61.75
2023-05-14T04:53:34.634Z,61.65
2023-05-14T04:56:02.391Z,61.72
2023-05-14T04:58:34.617Z,61.86
2023-05-14T05:01:04.411Z,61.58
2023-05-14T05:03:32.247Z,61.90
2023-05-14T05:06:01.465Z,61.67
2023-05-14T05:08:29.702Z,61.52
2023-05-14T05:10:57.520Z,61.87
2023-05-14T05:13:25.342Z,62.08
2023-05-14T05:15:53.157Z,61.55
2023-05-14T05:18:20.965Z,61.58
2023-05-14T05:20:48.786Z,61.47
2023-05-14T05:23:18.491Z,61.97
2023-05-14T05:25:46.233Z,61.53
2023-05-14T05:28:13.997Z,61.27
2023-05-14T05:30:42.452Z,61.69
2023-05-14T05:33:10.351Z,61.39
2023-05-14T05:35:38.298Z,61.41
2023-05-14T05:38:06.480Z,61.55
2023-05-14T05:40:35.697Z,61.45
2023-05-14T05:43:03.449Z,61.45
2023-05-14T05:45:31.853Z,61.55
2023-05-14T05:47:59.710Z,61.40
2023-05-14T05:50:27.588Z,61.71
2023-05-14T05:52:55.826Z,61.48
2023-05-14T05:55:23.772Z,61.63
2023-05-14T05:57:52.992Z,61.62
2023-05-14T06:00:22.356Z,61.44
2023-05-14T06:02:50.480Z,61.82
2023-05-14T06:05:19.258Z,61.64
2023-05-14T06:07:47.689Z,61.60
2023-05-14T06:10:15.473Z,61.67
2023-05-14T06:12:43.260Z,61.43
2023-05-14T06:15:13.697Z,61.86
2023-05-14T06:17:41.555Z,61.84
2023-05-14T06:20:10.163Z,61.33
2023-05-14T06:22:38.636Z,61.54
2023-05-14T06:25:07.065Z,61.73
2023-05-14T06:27:34.847Z,61.86
2023-05-14T06:30:03.144Z,61.37
2023-05-14T06:32:32.386Z,61.20
2023-05-14T06:35:01.876Z,61.22
2023-05-14T06:37:30.200Z,61.33
2023-05-14T06:39:58.149Z,61.17
2023-05-14T06:42:26.367Z,61.33
2023-05-14T06:44:55.055Z,61.23
2023-05-14T06:47:23.003Z,61.69
2023-05-14T06:49:52.251Z,61.39
2023-05-14T06:52:20.757Z,61.34
2023-05-14T06:54:48.520Z,61.29
2023-05-14T06:57:16.289Z,61.57
2023-05-14T06:59:44.701Z,61.37
2023-05-14T07:02:13.206Z,61.24
2023-05-14T07:04:41.248Z,61.42
2023-05-14T07:07:15.600Z,61.67
2023-05-14T07:09:43.407Z,61.45
2023-05-14T07:12:11.276Z,61.35
2023-05-14T07:14:39.612Z,61.17
2023-05-14T07:17:07.469Z,61.24
2023-05-14T07:19:35.306Z,61.22
2023-05-14T07:22:03.720Z,61.52
2023-05-14T07:24:32.872Z,61.13
2023-05-14T07:27:01.877Z,61.44
2023-05-14T07:29:30.623Z,61.56
2023-05-14T07:31:58.402Z,61.18
2023-05-14T07:34:26.163Z,61.36
2023-05-14T07:36:54.821Z,60.66
2023-05-14T07:39:22.663Z,60.99
2023-05-14T07:41:52.021Z,61.20
2023-05-14T07:44:20.398Z,61.07
2023-05-14T07:46:48.198Z,61.26
2023-05-14T07:49:16.001Z,60.89
2023-05-14T07:51:44.091Z,61.34
2023-05-14T07:54:12.338Z,60.81
2023-05-14T07:56:40.156Z,60.79
2023-05-14T07:59:09.857Z,61.39
2023-05-14T08:01:39.335Z,61.33
2023-05-14T08:04:07.510Z,61.13
2023-05-14T08:06:36.189Z,61.32
2023-05-14T08:09:05.327Z,61.50
2023-05-14T08:11:33.161Z,61.50
2023-05-14T08:14:01.461Z,61.35
2023-05-14T08:16:30.640Z,61.65
2023-05-14T08:18:58.469Z,61.97
2023-05-14T08:21:26.852Z,61.69
2023-05-14T08:23:54.674Z,61.64
2023-05-14T08:26:22.860Z,61.93
2023-05-14T08:28:51.137Z,61.33
2023-05-14T08:31:18.925Z,61.46
2023-05-14T08:33:48.082Z,61.63
2023-05-14T08:36:16.423Z,61.61
2023-05-14T08:38:45.329Z,61.42
2023-05-14T08:41:14.917Z,61.05
2023-05-14T08:43:45.992Z,60.96
2023-05-14T08:46:16.027Z,60.86
2023-05-14T08:48:49.586Z,60.85
2023-05-14T08:51:18.844Z,60.25
2023-05-14T08:53:46.675Z,60.40
2023-05-14T08:56:16.813Z,60.55
2023-05-14T08:58:44.622Z,61.18
2023-05-14T09:01:12.416Z,61.00
2023-05-14T09:03:41.739Z,60.50
2023-05-14T09:06:10.444Z,60.06
2023-05-14T09:08:39.778Z,60.37
2023-05-14T09:11:08.383Z,60.18
2023-05-14T09:13:41.007Z,60.10
2023-05-14T09:16:09.645Z,59.23
2023-05-14T09:18:37.975Z,59.29
2023-05-14T09:21:06.092Z,59.83
2023-05-14T09:23:35.260Z,60.12
2023-05-14T09:26:06.958Z,59.71
2023-05-14T09:28:34.753Z,59.60
2023-05-14T09:31:04.240Z,59.06
2023-05-14T09:33:32.844Z,59.87
2023-05-14T09:36:01.284Z,58.89
2023-05-14T09:38:32.362Z,57.92
2023-05-14T09:41:00.768Z,58.32
2023-05-14T09:43:29.908Z,58.38
2023-05-14T09:45:57.684Z,57.80
2023-05-14T09:48:26.363Z,57.62
2023-05-14T09:50:54.197Z,58.52
2023-05-14T09:53:22.216Z,58.05
2023-05-14T09:55:53.224Z,57.02
2023-05-14T09:58:21.326Z,57.04
2023-05-14T10:00:52.068Z,57.81
2023-05-14T10:03:21.344Z,57.53
2023-05-14T10:05:51.092Z,57.86
2023-05-14T10:08:23.451Z,57.24
2023-05-14T10:10:54.760Z,56.28
2023-05-14T10:13:28.382Z,55.94
2023-05-14T10:16:02.896Z,55.81
2023-05-14T10:18:37.188Z,55.72
2023-05-14T10:21:06.731Z,55.84
2023-05-14T10:23:34.656Z,56.51
2023-05-14T10:26:03.812Z,55.29
2023-05-14T10:28:32.827Z,54.83
2023-05-14T10:31:02.038Z,54.80
2023-05-14T10:33:30.299Z,54.87
2023-05-14T10:36:01.033Z,54.37
2023-05-14T10:38:29.830Z,53.68
2023-05-14T10:41:00.036Z,54.57
2023-05-14T10:43:29.334Z,53.49
2023-05-14T10:45:57.446Z,53.70
2023-05-14T10:48:27.569Z,53.87
2023-05-14T10:50:57.730Z,53.52
2023-05-14T10:53:34.517Z,52.57
2023-05-14T10:56:07.456Z,52.92
2023-05-14T10:58:39.110Z,53.71
2023-05-14T11:01:08.446Z,53.79
2023-05-14T11:03:43.300Z,53.92
2023-05-14T11:06:12.199Z,53.76
2023-05-14T11:08:40.975Z,53.27
2023-05-14T11:11:10.725Z,53.00
2023-05-14T11:13:38.630Z,52.05
2023-05-14T11:18:41.061Z,52.39
2023-05-14T11:21:10.251Z,52.17
2023-05-14T11:23:38.055Z,52.16
2023-05-14T11:26:06.399Z,50.84
2023-05-14T11:28:34.222Z,51.56
2023-05-14T11:31:02.199Z,51.10
2023-05-14T11:33:31.155Z,50.56
2023-05-14T11:35:58.924Z,50.43
2023-05-14T11:38:28.077Z,51.21
2023-05-14T11:40:56.906Z,50.48
2023-05-14T11:43:25.188Z,51.18
2023-05-14T11:45:53.918Z,50.44
2023-05-14T11:48:22.615Z,49.52
2023-05-14T11:50:52.407Z,48.97
2023-05-14T11:53:20.831Z,49.32
2023-05-14T11:55:50.554Z,48.83
2023-05-14T11:58:19.526Z,49.64
2023-05-14T12:00:47.902Z,50.11
2023-05-14T12:03:16.367Z,49.66
2023-05-14T12:05:57.035Z,49.97
2023-05-14T12:08:28.548Z,49.57
2023-05-14T12:10:59.607Z,48.96
2023-05-14T12:13:27.853Z,49.49
2023-05-14T12:15:57.814Z,49.52
2023-05-14T12:18:26.427Z,49.41
2023-05-14T12:20:54.262Z,49.24
2023-05-14T12:23:27.157Z,48.38
2023-05-14T12:25:54.920Z,47.83
2023-05-14T12:28:24.704Z,48.71
2023-05-14T12:30:57.756Z,48.75
2023-05-14T12:33:26.575Z,48.04
2023-05-14T12:35:58.967Z,47.99
2023-05-14T12:38:28.581Z,48.34
2023-05-14T12:40:56.862Z,48.21
2023-05-14T12:43:30.175Z,47.89
2023-05-14T12:45:58.083Z,48.06
2023-05-14T12:48:26.582Z,47.58
2023-05-14T12:50:54.721Z,46.96
2023-05-14T12:53:22.525Z,46.90
2023-05-14T12:55:50.326Z,46.38
2023-05-14T12:58:18.434Z,48.13
2023-05-14T13:00:47.674Z,47.38
2023-05-14T13:03:15.604Z,46.99
2023-05-14T13:05:43.628Z,47.37
2023-05-14T13:08:14.666Z,47.24
2023-05-14T13:10:42.435Z,48.17
2023-05-14T13:13:10.445Z,48.21
2023-05-14T13:15:38.653Z,47.99
2023-05-14T13:18:08.190Z,47.73
2023-05-14T13:20:36.403Z,48.29
2023-05-14T13:23:04.215Z,47.43
2023-05-14T13:25:32.026Z,46.45
2023-05-14T13:28:00.115Z,47.04
2023-05-14T13:30:27.986Z,45.86
2023-05-14T13:32:55.918Z,45.98
2023-05-14T13:35:25.487Z,45.85
2023-05-14T13:37:53.458Z,45.92
2023-05-14T13:40:21.354Z,45.69
2023-05-14T13:42:49.397Z,45.44
2023-05-14T13:45:17.206Z,45.87
2023-05-14T13:47:45.043Z,45.16
2023-05-14T13:50:13.445Z,46.32
2023-05-14T13:52:42.596Z,44.91
2023-05-14T13:55:10.742Z,45.15
2023-05-14T13:57:39.963Z,45.35
2023-05-14T14:00:11.114Z,44.97
2023-05-14T14:02:38.938Z,44.60
2023-05-14T14:05:07.991Z,44.25
2023-05-14T14:07:35.854Z,44.42
2023-05-14T14:10:05.674Z,44.36
2023-05-14T14:12:34.089Z,44.19
2023-05-14T14:15:02.841Z,43.69
2023-05-14T14:17:30.801Z,43.40
2023-05-14T14:19:59.004Z,42.81
2023-05-14T14:22:28.983Z,43.67
2023-05-14T14:24:57.205Z,43.51
2023-05-14T14:27:26.994Z,44.41
2023-05-14T14:29:56.727Z,44.55
2023-05-14T14:32:24.528Z,44.38
2023-05-14T14:34:52.884Z,44.27
2023-05-14T14:37:21.279Z,44.30
2023-05-14T14:39:50.811Z,43.89
2023-05-14T14:42:18.663Z,43.95
2023-05-14T14:44:47.834Z,44.58
2023-05-14T14:47:15.648Z,44.19
2023-05-14T14:49:44.081Z,44.27
2023-05-14T14:52:11.916Z,44.10
2023-05-14T14:54:39.711Z,44.48
2023-05-14T14:57:08.070Z,44.45
2023-05-14T14:59:36.333Z,43.96
2023-05-14T15:02:06.404Z,44.48
2023-05-14T15:04:35.320Z,45.26
2023-05-14T15:07:03.415Z,45.65
2023-05-14T15:09:31.334Z,45.33
2023-05-14T15:11:59.731Z,44.97
2023-05-14T15:14:27.942Z,45.49
2023-05-14T15:16:55.816Z,44.83
2023-05-14T15:19:25.578Z,44.29
2023-05-14T15:21:53.754Z,44.54
2023-05-14T15:24:23.893Z,44.82
2023-05-14T15:26:53.428Z,45.01
2023-05-14T15:29:21.596Z,44.67
2023-05-14T15:31:49.376Z,44.97
2023-05-14T15:34:17.767Z,45.05
2023-05-14T15:36:46.944Z,45.09
2023-05-14T15:39:14.737Z,45.42
2023-05-14T15:41:43.114Z,45.44
2023-05-14T15:44:10.899Z,45.65
2023-05-14T15:46:38.899Z,45.99
2023-05-14T15:49:07.316Z,46.37
2023-05-14T15:51:35.888Z,46.66
2023-05-14T15:54:05.075Z,46.91
2023-05-14T15:56:33.469Z,46.77
2023-05-14T15:59:01.250Z,46.89
2023-05-14T16:01:29.134Z,47.06
2023-05-14T16:03:57.564Z,46.75
2023-05-14T16:06:26.365Z,47.11
2023-05-14T16:08:54.448Z,46.84
2023-05-14T16:11:24.184Z,47.47
2023-05-14T16:13:51.974Z,47.66
2023-05-14T16:16:20.733Z,47.91
2023-05-14T16:18:49.081Z,47.81
2023-05-14T16:21:16.936Z,48.32
2023-05-14T16:23:44.691Z,48.33
2023-05-14T16:26:13.051Z,48.74
2023-05-14T16:28:42.777Z,48.96
2023-05-14T16:31:10.574Z,48.62
2023-05-14T16:33:38.881Z,48.58
2023-05-14T16:36:07.095Z,48.49
2023-05-14T16:38:38.520Z,48.39
2023-05-14T16:41:10.351Z,48.43
2023-05-14T16:43:38.122Z,48.43
2023-05-14T16:46:07.419Z,48.34
2023-05-14T16:48:35.952Z,48.63
2023-05-14T16:51:03.763Z,48.25
2023-05-14T16:53:31.558Z,47.95
2023-05-14T16:55:59.939Z,48.23
2023-05-14T16:58:28.402Z,47.80
2023-05-14T17:00:56.234Z,48.26
2023-05-14T17:03:25.522Z,47.93
2023-05-14T17:05:53.485Z,47.84
2023-05-14T17:08:21.294Z,47.20
2023-05-14T17:10:49.697Z,47.11
2023-05-14T17:13:17.738Z,46.28
2023-05-14T17:15:45.549Z,45.75
2023-05-14T17:18:13.967Z,46.02
2023-05-14T17:20:43.158Z,45.46
2023-05-14T17:23:10.897Z,46.00
2023-05-14T17:25:39.399Z,45.48
2023-05-14T17:28:07.206Z,46.16
2023-05-14T17:30:34.992Z,46.73
2023-05-14T17:33:03.416Z,46.93
2023-05-14T17:35:35.678Z,45.73
2023-05-14T17:38:05.434Z,46.63
2023-05-14T17:40:33.470Z,47.10
2023-05-14T17:43:01.378Z,46.81
2023-05-14T17:45:36.380Z,47.13
2023-05-14T17:48:10.756Z,47.25
2023-05-14T17:50:39.795Z,47.60
2023-05-14T17:53:08.911Z,47.05
2023-05-14T17:55:42.663Z,47.15
2023-05-14T17:58:11.366Z,47.02
2023-05-14T18:00:39.461Z,47.09
2023-05-14T18:03:08.048Z,46.87
2023-05-14T18:05:36.111Z,46.81
2023-05-14T18:08:03.868Z,46.68
2023-05-14T18:10:33.297Z,46.73
2023-05-14T18:13:01.108Z,46.69
2023-05-14T18:15:29.301Z,46.29
2023-05-14T18:17:57.141Z,46.73
2023-05-14T18:20:24.993Z,46.79
2023-05-14T18:22:52.794Z,46.95
2023-05-14T18:25:20.905Z,46.99
2023-05-14T18:27:50.055Z,46.90
2023-05-14T18:30:17.878Z,46.66
2023-05-14T18:32:46.842Z,47.16
2023-05-14T18:35:14.820Z,47.22
2023-05-14T18:37:42.582Z,47.10
2023-05-14T18:40:16.355Z,47.69
2023-05-14T18:42:46.207Z,47.57
2023-05-14T18:45:15.631Z,48.10
2023-05-14T18:47:43.495Z,48.11
2023-05-14T18:50:11.818Z,48.15
2023-05-14T18:52:39.767Z,48.58
2023-05-14T18:55:08.211Z,48.19
2023-05-14T18:57:37.601Z,48.14
2023-05-14T19:00:06.403Z,47.87
2023-05-14T19:02:36.021Z,47.09
2023-05-14T19:05:04.057Z,46.89
2023-05-14T19:07:32.435Z,46.71
2023-05-14T19:10:00.430Z,46.45
2023-05-14T19:12:28.825Z,46.54
2023-05-14T19:14:56.649Z,46.82
2023-05-14T19:17:25.038Z,46.67
2023-05-14T19:19:54.456Z,46.85
2023-05-14T19:22:22.846Z,47.26
2023-05-14T19:27:24.703Z,47.49
2023-05-14T19:29:52.533Z,47.80
2023-05-14T19:32:20.310Z,48.02
2023-05-14T19:34:49.500Z,48.36
2023-05-14T19:37:20.072Z,48.28
2023-05-14T19:39:48.584Z,48.29
2023-05-14T19:42:16.499Z,48.73
2023-05-14T19:44:44.314Z,48.76
2023-05-14T19:47:12.800Z,48.97
2023-05-14T19:49:40.714Z,49.28
2023-05-14T19:52:08.531Z,49.40
2023-05-14T19:54:38.395Z,49.43
2023-05-14T19:57:06.983Z,49.64
2023-05-14T19:59:34.810Z,49.77
2023-05-14T20:02:03.236Z,49.84
2023-05-14T20:04:31.101Z,49.79
2023-05-14T20:06:58.942Z,49.98
2023-05-14T20:09:27.646Z,49.91
2023-05-14T20:11:56.763Z,50.37
2023-05-14T20:14:24.599Z,50.15
2023-05-14T20:16:53.562Z,50.31
2023-05-14T20:19:22.169Z,50.23
2023-05-14T20:21:50.052Z,50.52
2023-05-14T20:24:18.062Z,50.73
2023-05-14T20:26:45.819Z,50.80
2023-05-14T20:29:15.642Z,50.83
2023-05-14T20:31:43.632Z,50.99
2023-05-14T20:34:11.373Z,50.96
2023-05-14T20:36:39.137Z,50.98
2023-05-14T20:39:07.365Z,50.99
2023-05-14T20:41:35.417Z,50.86
2023-05-14T20:44:03.160Z,50.94
2023-05-14T20:46:32.576Z,50.88
2023-05-14T20:49:01.920Z,51.04
2023-05-14T20:51:29.687Z,50.78
2023-05-14T20:53:57.659Z,50.96
2023-05-14T20:56:26.352Z,51.00
2023-05-14T20:58:54.114Z,50.99
2023-05-14T21:01:22.759Z,50.92
2023-05-14T21:03:52.140Z,50.73
2023-05-14T21:06:20.092Z,51.00
2023-05-14T21:08:47.901Z,51.08
2023-05-14T21:11:15.658Z,51.13
2023-05-14T21:13:44.174Z,51.06
2023-05-14T21:16:12.965Z,51.43
2023-05-14T21:18:40.855Z,51.49
2023-05-14T21:21:10.096Z,51.55
2023-05-14T21:23:38.429Z,51.56
2023-05-14T21:26:06.359Z,51.52
2023-05-14T21:28:34.171Z,51.68
2023-05-14T21:31:02.382Z,51.69
2023-05-14T21:33:30.167Z,51.84
2023-05-14T21:35:57.988Z,51.84
2023-05-14T21:38:27.918Z,52.03
2023-05-14T21:40:55.690Z,52.08
2023-05-14T21:43:23.496Z,51.89
2023-05-14T21:45:51.997Z,52.01
2023-05-14T21:48:20.834Z,51.92
2023-05-14T21:50:48.713Z,51.90
2023-05-14T21:53:17.111Z,51.88
2023-05-14T21:55:46.343Z,52.23
2023-05-14T21:58:14.213Z,52.23
2023-05-14T22:00:42.488Z,52.19
2023-05-14T22:03:10.415Z,52.25
2023-05-14T22:05:38.289Z,52.65
2023-05-14T22:08:07.177Z,52.40
2023-05-14T22:10:36.015Z,52.39
2023-05-14T22:13:05.164Z,52.30
2023-05-14T22:15:33.497Z,51.97
2023-05-14T22:18:03.085Z,52.03
2023-05-14T22:20:30.730Z,51.76
2023-05-14T22:22:59.083Z,52.42
2023-05-14T22:25:27.230Z,52.56
2023-05-14T22:27:55.161Z,52.59
2023-05-14T22:30:25.067Z,52.40
2023-05-14T22:32:52.879Z,52.42
2023-05-14T22:35:21.251Z,52.26
2023-05-14T22:37:49.576Z,52.60
2023-05-14T22:40:17.338Z,52.44
2023-05-14T22:42:45.234Z,52.63
2023-05-14T22:45:13.693Z,52.79
2023-05-14T22:47:42.884Z,52.82
2023-05-14T22:50:12.121Z,52.85
2023-05-14T22:52:40.692Z,53.14
2023-05-14T22:55:09.309Z,53.03
2023-05-14T22:57:37.163Z,53.26
2023-05-14T23:00:07.559Z,53.24
2023-05-14T23:02:35.754Z,53.54
2023-05-14T23:05:05.434Z,53.64
2023-05-14T23:07:33.621Z,52.92
2023-05-14T23:10:01.836Z,53.33
2023-05-14T23:12:29.669Z,53.53
2023-05-14T23:14:59.616Z,53.37
2023-05-14T23:17:27.851Z,53.71
2023-05-14T23:19:55.806Z,53.64
2023-05-14T23:22:25.533Z,53.46
2023-05-14T23:24:53.306Z,53.75
2023-05-14T23:27:21.070Z,53.70
2023-05-14T23:29:49.520Z,53.50
2023-05-14T23:32:17.297Z,53.55
2023-05-14T23:34:45.079Z,53.63
2023-05-14T23:37:13.555Z,53.78
2023-05-14T23:39:42.718Z,53.63
2023-05-14T23:42:12.030Z,53.88
2023-05-14T23:44:40.311Z,54.21
2023-05-14T23:47:08.784Z,54.37
2023-05-14T23:49:36.686Z,54.12
2023-05-14T23:52:05.269Z,53.96
2023-05-14T23:54:33.037Z,54.38
2023-05-14T23:57:05.045Z,54.26
2023-05-14T23:59:33.464Z,54.16
